BCN weather

Barcelona International Airport
Barcelona, Catalonia, Spain

Public forecast

Using degrees Celsius for public forecast. Weather courtesy of forecast.io.

METAR (pilot weather report)

Retrieved 2018/10/17 03:30 UTC (0 seconds ago):

LEBL 170330Z 33008KT 9999 FEW025 SCT050 16/13 Q1016 NOSIG

TAF (pilot weather forecast)

Forecast is more than 12 hours old.

Retrieved 2018/10/16 00:27 UTC (1 day ago):

TAF LEBL 162300Z 1700/1724 34007KT 9999 SCT020 TX24/1712Z TN16/1706Z TEMPO 1700/1709 34010G22KT BECMG 1710/1712 06010KT BECMG 1719/1721 34007KT TEMPO 1710/1716 SCT020 FEW025CB